createdAt,value
2022-12-12T00:00:50.722Z,98377.11
2022-12-12T00:01:57.517Z,98382.42
2022-12-12T00:03:02.106Z,98378.56
2022-12-12T00:04:07.244Z,98377.73
2022-12-12T00:05:14.650Z,98381.35
2022-12-12T00:06:19.943Z,98377.73
2022-12-12T00:07:23.991Z,98390.63
2022-12-12T00:08:28.009Z,98390.63
2022-12-12T00:09:33.648Z,98393.11
2022-12-12T00:10:37.889Z,98394.94
2022-12-12T00:11:41.833Z,98397.45
2022-12-12T00:12:45.839Z,98403.59
2022-12-12T00:13:49.890Z,98408.21
2022-12-12T00:14:53.860Z,98403.59
2022-12-12T00:15:57.774Z,98395.77
2022-12-12T00:17:01.985Z,98395.77
2022-12-12T00:18:06.160Z,98392.97
2022-12-12T00:19:13.034Z,98400.94
2022-12-12T00:20:17.207Z,98416.04
2022-12-12T00:21:29.350Z,98414.21
2022-12-12T00:22:34.683Z,98418.52
2022-12-12T00:23:38.875Z,98414.90
2022-12-12T00:24:42.900Z,98414.90
2022-12-12T00:25:48.430Z,98414.21
2022-12-12T00:26:52.799Z,98416.34
2022-12-12T00:27:56.952Z,98416.17
2022-12-12T00:29:03.982Z,98418.83
2022-12-12T00:30:08.844Z,98418.83
2022-12-12T00:31:13.009Z,98414.52
2022-12-12T00:32:17.133Z,98414.66
2022-12-12T00:33:21.253Z,98415.48
2022-12-12T00:34:25.410Z,98422.48
2022-12-12T00:35:29.485Z,98418.31
2022-12-12T00:36:33.879Z,98415.48
2022-12-12T00:37:39.567Z,98419.14
2022-12-12T00:38:43.772Z,98423.31
2022-12-12T00:39:47.954Z,98426.80
2022-12-12T00:41:00.353Z,98421.80
2022-12-12T00:42:04.527Z,98419.83
2022-12-12T00:43:10.112Z,98420.80
2022-12-12T00:44:14.176Z,98406.86
2022-12-12T00:45:18.471Z,98406.86
2022-12-12T00:46:25.483Z,98413.69
2022-12-12T00:47:29.605Z,98413.69
2022-12-12T00:48:33.687Z,98421.93
2022-12-12T00:49:37.761Z,98411.31
2022-12-12T00:50:41.929Z,98408.52
2022-12-12T00:51:46.015Z,98409.52
2022-12-12T00:52:54.051Z,98409.52
2022-12-12T00:53:59.291Z,98410.48
2022-12-12T00:55:07.958Z,98408.83
2022-12-12T00:56:12.441Z,98403.52
2022-12-12T00:57:16.530Z,98405.34
2022-12-12T00:58:20.680Z,98405.34
2022-12-12T00:59:25.122Z,98412.45
2022-12-12T01:00:29.696Z,98405.63
2022-12-12T01:01:35.376Z,98401.83
2022-12-12T01:02:39.521Z,98404.48
2022-12-12T01:03:44.303Z,98407.31
2022-12-12T01:04:48.243Z,98409.45
2022-12-12T01:05:53.468Z,98409.45
2022-12-12T01:06:57.715Z,98404.41
2022-12-12T01:08:03.808Z,98400.79
2022-12-12T01:09:09.825Z,98399.10
2022-12-12T01:10:14.912Z,98401.09
2022-12-12T01:11:19.174Z,98396.62
2022-12-12T01:12:23.263Z,98401.92
2022-12-12T01:13:28.697Z,98400.23
2022-12-12T01:14:35.598Z,98403.06
2022-12-12T01:15:39.688Z,98403.06
2022-12-12T01:16:46.857Z,98399.41
2022-12-12T01:17:51.084Z,98400.41
2022-12-12T01:18:55.219Z,98405.02
2022-12-12T01:20:01.029Z,98411.16
2022-12-12T01:21:18.689Z,98416.33
2022-12-12T01:22:28.223Z,98416.33
2022-12-12T01:23:31.539Z,98412.98
2022-12-12T01:24:35.780Z,98414.81
2022-12-12T01:25:39.972Z,98419.12
2022-12-12T01:26:47.140Z,98418.30
2022-12-12T01:27:51.681Z,98410.64
2022-12-12T01:28:55.647Z,98413.43
2022-12-12T01:30:07.293Z,98411.91
2022-12-12T01:31:13.023Z,98408.29
2022-12-12T01:32:17.170Z,98404.80
2022-12-12T01:33:21.325Z,98392.37
2022-12-12T01:34:25.434Z,98398.64
2022-12-12T01:35:30.663Z,98402.45
2022-12-12T01:36:34.774Z,98402.45
2022-12-12T01:37:46.460Z,98415.17
2022-12-12T01:38:55.073Z,98420.48
2022-12-12T01:39:59.249Z,98418.66
2022-12-12T01:41:03.128Z,98425.78
2022-12-12T01:42:12.915Z,98418.13
2022-12-12T01:43:20.025Z,98418.13
2022-12-12T01:44:46.292Z,98405.99
2022-12-12T01:46:04.428Z,98403.78
2022-12-12T01:47:08.190Z,98403.95
2022-12-12T01:48:12.274Z,98400.47
2022-12-12T01:49:24.953Z,98399.77
2022-12-12T01:50:29.186Z,98410.69
2022-12-12T01:51:34.082Z,98409.69
2022-12-12T01:52:41.073Z,98409.69
2022-12-12T01:53:46.424Z,98428.70
2022-12-12T01:54:53.439Z,98416.42
2022-12-12T01:55:59.080Z,98413.91
2022-12-12T01:57:11.858Z,98413.91
2022-12-12T01:58:17.818Z,98406.55
2022-12-12T01:59:25.026Z,98410.03
2022-12-12T02:00:29.170Z,98407.55
2022-12-12T02:01:33.758Z,98414.52
2022-12-12T02:02:40.366Z,98413.81
2022-12-12T02:03:47.227Z,98409.20
2022-12-12T02:04:53.041Z,98409.20
2022-12-12T02:06:00.611Z,98398.20
2022-12-12T02:07:05.409Z,98386.77
2022-12-12T02:08:11.105Z,98372.68
2022-12-12T02:09:18.098Z,98367.12
2022-12-12T02:10:22.390Z,98376.38
2022-12-12T02:11:31.471Z,98380.84
2022-12-12T02:12:35.552Z,98387.80
2022-12-12T02:13:39.990Z,98387.80
2022-12-12T02:14:49.574Z,98381.81
2022-12-12T02:16:17.826Z,98386.98
2022-12-12T02:17:37.682Z,98404.55
2022-12-12T02:19:01.203Z,98406.36
2022-12-12T02:20:16.764Z,98399.11
2022-12-12T02:21:38.715Z,98399.11
2022-12-12T02:23:20.098Z,98384.75
2022-12-12T02:24:41.810Z,98392.02
2022-12-12T02:26:09.610Z,98383.70
2022-12-12T02:27:42.138Z,98383.70
2022-12-12T02:28:57.714Z,98385.36
2022-12-12T02:30:13.040Z,98385.36
2022-12-12T02:31:28.783Z,98377.00
2022-12-12T02:32:50.781Z,98384.83
2022-12-12T02:33:57.886Z,98384.83
2022-12-12T02:35:23.091Z,98386.91
2022-12-12T02:36:38.590Z,98386.61
2022-12-12T02:38:02.061Z,98400.73
2022-12-12T02:39:20.784Z,98403.81
2022-12-12T02:40:33.528Z,98386.52
2022-12-12T02:41:42.783Z,98386.52
2022-12-12T02:43:01.647Z,98387.21
2022-12-12T02:44:29.805Z,98375.91
2022-12-12T02:45:51.334Z,98376.20
2022-12-12T02:47:10.352Z,98365.77
2022-12-12T02:48:44.271Z,98365.77
2022-12-12T02:49:53.686Z,98360.31
2022-12-12T02:51:01.016Z,98346.39
2022-12-12T02:52:06.460Z,98358.95
2022-12-12T02:53:10.918Z,98358.12
2022-12-12T02:54:20.826Z,98358.12
2022-12-12T02:55:26.643Z,98380.15
2022-12-12T02:56:53.153Z,98378.45
2022-12-12T02:57:57.141Z,98387.11
2022-12-12T02:59:01.136Z,98387.11
2022-12-12T03:00:11.056Z,98388.80
2022-12-12T03:01:29.354Z,98389.75
2022-12-12T03:02:47.990Z,98388.80
2022-12-12T03:03:54.941Z,98403.84
2022-12-12T03:05:04.642Z,98410.95
2022-12-12T03:06:39.390Z,98410.95
2022-12-12T03:07:59.155Z,98416.95
2022-12-12T03:09:11.825Z,98432.32
2022-12-12T03:10:30.395Z,98409.59
2022-12-12T03:11:46.195Z,98408.60
2022-12-12T03:13:08.038Z,98418.50
2022-12-12T03:14:14.940Z,98424.80
2022-12-12T03:15:46.061Z,98419.62
2022-12-12T03:16:53.014Z,98423.40
2022-12-12T03:18:02.821Z,98419.79
2022-12-12T03:19:12.346Z,98419.79
2022-12-12T03:20:25.180Z,98412.80
2022-12-12T03:21:47.163Z,98405.84
2022-12-12T03:23:03.091Z,98408.48
2022-12-12T03:24:10.028Z,98405.84
2022-12-12T03:25:19.718Z,98404.19
2022-12-12T03:26:32.527Z,98405.97
2022-12-12T03:27:48.452Z,98404.45
2022-12-12T03:28:55.374Z,98419.52
2022-12-12T03:30:05.439Z,98428.98
2022-12-12T03:31:15.370Z,98428.98
2022-12-12T03:32:25.341Z,98429.81
2022-12-12T03:33:32.222Z,98429.81
2022-12-12T03:34:45.218Z,98425.64
2022-12-12T03:35:55.297Z,98430.94
2022-12-12T03:37:02.489Z,98431.80
2022-12-12T03:38:09.578Z,98433.88
2022-12-12T03:39:16.531Z,98433.21
2022-12-12T03:40:31.486Z,98440.17
2022-12-12T03:41:38.579Z,98440.17
2022-12-12T03:42:51.400Z,98430.41
2022-12-12T03:44:01.226Z,98433.21
2022-12-12T03:45:16.947Z,98433.21
2022-12-12T03:46:26.360Z,98438.52
2022-12-12T03:47:33.476Z,98439.47
2022-12-12T03:48:49.493Z,98444.93
2022-12-12T03:50:02.031Z,98453.01
2022-12-12T03:51:11.863Z,98454.00
2022-12-12T03:52:21.420Z,98454.00
2022-12-12T03:53:37.420Z,98452.30
2022-12-12T03:54:46.672Z,98450.48
2022-12-12T03:55:59.507Z,98445.34
2022-12-12T03:57:08.478Z,98448.98
2022-12-12T03:58:27.407Z,98445.34
2022-12-12T03:59:37.015Z,98407.91
2022-12-12T04:00:42.962Z,98446.34
2022-12-12T04:02:09.489Z,98450.78
2022-12-12T04:03:22.052Z,98442.98
2022-12-12T04:04:31.920Z,98445.92
2022-12-12T04:05:48.107Z,98448.28
2022-12-12T04:07:01.219Z,98446.59
2022-12-12T04:08:10.923Z,98453.87
2022-12-12T04:09:26.205Z,98455.53
2022-12-12T04:10:33.235Z,98454.00
2022-12-12T04:13:34.619Z,98450.81
2022-12-12T04:14:53.549Z,98449.82
2022-12-12T04:16:18.379Z,98444.39
2022-12-12T04:17:25.522Z,98444.39
2022-12-12T04:19:02.640Z,98439.09
2022-12-12T04:20:12.446Z,98432.11
2022-12-12T04:21:49.457Z,98438.40
2022-12-12T04:22:59.423Z,98448.16
2022-12-12T04:24:09.427Z,98442.16
2022-12-12T04:25:16.340Z,98442.99
2022-12-12T04:26:57.983Z,98442.99
2022-12-12T04:28:05.091Z,98456.40
2022-12-12T04:29:21.050Z,98258.45
2022-12-12T04:30:25.231Z,98449.41
2022-12-12T04:31:31.900Z,98442.45
2022-12-12T04:32:47.611Z,98411.83
2022-12-12T04:33:54.184Z,98453.05
2022-12-12T04:35:21.817Z,98453.05
2022-12-12T04:36:28.986Z,98445.80
2022-12-12T04:37:36.011Z,98445.80
2022-12-12T04:38:42.575Z,98453.05
2022-12-12T04:39:49.771Z,98455.98
2022-12-12T04:40:58.597Z,97861.51
2022-12-12T04:42:04.207Z,98457.09
2022-12-12T04:43:11.141Z,98453.20
2022-12-12T04:44:19.641Z,98436.33
2022-12-12T04:45:26.834Z,98439.67
2022-12-12T04:46:34.104Z,98430.36
2022-12-12T04:47:40.505Z,98430.36
2022-12-12T04:48:59.249Z,98447.77
2022-12-12T04:50:04.977Z,98451.53
2022-12-12T04:51:11.912Z,98458.65
2022-12-12T04:52:21.758Z,98451.95
2022-12-12T04:53:28.818Z,98451.53
2022-12-12T04:54:53.881Z,98451.53
2022-12-12T04:56:02.194Z,98436.34
2022-12-12T04:57:09.709Z,98436.34
2022-12-12T04:58:14.693Z,98451.11
2022-12-12T04:59:19.275Z,98447.50
2022-12-12T05:00:25.021Z,98442.46
2022-12-12T05:01:53.484Z,98450.41
2022-12-12T05:03:06.048Z,98446.80
2022-12-12T05:04:15.600Z,98448.90
2022-12-12T05:05:28.485Z,98452.22
2022-12-12T05:06:41.133Z,98451.67
2022-12-12T05:07:53.853Z,98458.62
2022-12-12T05:08:59.614Z,98456.41
2022-12-12T05:10:05.340Z,98467.67
2022-12-12T05:11:09.923Z,97900.09
2022-12-12T05:12:16.522Z,97900.09
2022-12-12T05:13:37.842Z,98471.43
2022-12-12T05:14:57.507Z,98474.78
2022-12-12T05:19:24.816Z,98472.30
2022-12-12T05:20:29.434Z,98476.72
2022-12-12T05:21:33.529Z,98476.72
2022-12-12T05:22:38.266Z,98480.08
2022-12-12T05:23:45.013Z,98481.89
2022-12-12T05:24:49.396Z,98491.64
2022-12-12T05:25:59.671Z,98491.64
2022-12-12T05:27:25.290Z,98522.14
2022-12-12T05:30:10.014Z,98510.45
2022-12-12T05:47:02.425Z,98475.02
2022-12-12T05:48:06.599Z,98481.69
2022-12-12T05:49:10.439Z,98493.95
2022-12-12T05:50:15.944Z,98496.33
2022-12-12T05:51:20.885Z,98498.70
2022-12-12T05:52:27.482Z,98495.06
2022-12-12T05:53:31.439Z,98497.44
2022-12-12T05:54:37.319Z,98508.88
2022-12-12T05:55:41.528Z,98525.30
2022-12-12T05:56:45.462Z,98538.53
2022-12-12T05:57:49.310Z,98544.66
2022-12-12T05:58:53.204Z,98539.09
2022-12-12T05:59:57.056Z,98524.91
2022-12-12T06:01:04.146Z,98514.33
2022-12-12T06:02:08.060Z,98508.17
2022-12-12T06:03:12.030Z,98516.27
2022-12-12T06:04:16.109Z,98526.69
2022-12-12T06:05:20.111Z,98533.40
2022-12-12T06:06:26.487Z,98532.57
2022-12-12T06:07:30.433Z,98541.34
2022-12-12T06:08:34.400Z,98531.03
2022-12-12T06:09:38.406Z,98538.81
2022-12-12T06:10:42.616Z,98544.97
2022-12-12T06:11:46.465Z,98552.05
2022-12-12T06:12:52.947Z,98552.05
2022-12-12T06:13:56.145Z,98544.53
2022-12-12T06:15:00.112Z,98541.89
2022-12-12T06:16:09.524Z,98544.66
2022-12-12T06:17:14.893Z,98545.48
2022-12-12T06:18:18.863Z,98550.78
2022-12-12T06:19:24.601Z,98556.06
2022-12-12T06:20:28.552Z,98556.06
2022-12-12T06:21:33.665Z,98554.25
2022-12-12T06:22:40.656Z,98552.59
2022-12-12T06:23:46.505Z,98557.05
2022-12-12T06:24:50.434Z,98545.77
2022-12-12T06:25:56.893Z,98437.80
2022-12-12T06:27:01.042Z,98555.91
2022-12-12T06:28:07.787Z,98548.24
2022-12-12T06:29:11.755Z,98556.17
2022-12-12T06:30:18.599Z,98561.47
2022-12-12T06:31:22.719Z,98554.36
2022-12-12T06:32:26.735Z,98564.38
2022-12-12T06:33:30.660Z,98571.61
2022-12-12T06:34:34.634Z,98561.02
2022-12-12T06:35:38.838Z,98561.02
2022-12-12T06:36:42.894Z,98565.05
2022-12-12T06:37:46.960Z,98569.50
2022-12-12T06:38:53.216Z,98559.05
2022-12-12T06:39:57.174Z,98570.28
2022-12-12T06:41:02.829Z,98571.59
2022-12-12T06:42:06.859Z,98562.94
2022-12-12T06:43:12.655Z,98568.23
2022-12-12T06:44:16.690Z,98569.33
2022-12-12T06:45:20.566Z,98565.97
2022-12-12T06:46:28.310Z,98571.14
2022-12-12T06:47:32.255Z,98566.69
2022-12-12T06:48:37.618Z,98564.99
2022-12-12T06:49:44.337Z,98570.28
2022-12-12T06:50:50.262Z,98570.28
2022-12-12T06:51:53.838Z,98572.09
2022-12-12T06:52:59.309Z,98576.28
2022-12-12T06:54:03.304Z,98576.28
2022-12-12T06:55:07.386Z,98577.11
2022-12-12T06:56:14.707Z,98583.27
2022-12-12T06:57:20.195Z,98583.27
2022-12-12T06:58:25.725Z,98584.22
2022-12-12T06:59:29.684Z,98584.22
2022-12-12T07:00:35.140Z,98596.61
2022-12-12T07:01:39.708Z,98591.43
2022-12-12T07:02:45.333Z,98592.98
2022-12-12T07:03:51.927Z,98591.43
2022-12-12T07:04:56.114Z,98595.06
2022-12-12T07:06:01.122Z,98595.06
2022-12-12T07:07:06.683Z,98589.05
2022-12-12T07:08:10.651Z,98580.03
2022-12-12T07:09:14.664Z,98580.03
2022-12-12T07:10:21.409Z,98583.27
2022-12-12T07:11:26.677Z,98582.40
2022-12-12T07:12:30.627Z,98580.73
2022-12-12T07:13:36.125Z,98585.31
2022-12-12T07:14:41.760Z,98580.62
2022-12-12T07:15:47.148Z,98582.28
2022-12-12T07:16:52.759Z,98576.02
2022-12-12T07:17:56.690Z,98588.28
2022-12-12T07:19:00.626Z,98584.66
2022-12-12T07:20:05.590Z,98584.66
2022-12-12T07:21:12.137Z,98590.78
2022-12-12T07:22:16.063Z,98582.02
2022-12-12T07:23:21.681Z,98582.02
2022-12-12T07:24:26.776Z,98585.48
2022-12-12T07:25:41.273Z,98582.72
2022-12-12T07:26:37.961Z,98583.44
2022-12-12T07:27:52.465Z,98584.27
2022-12-12T07:28:57.887Z,98591.37
2022-12-12T07:30:01.947Z,98589.41
2022-12-12T07:31:11.826Z,98594.70
2022-12-12T07:32:17.377Z,98594.70
2022-12-12T07:33:21.482Z,98594.02
2022-12-12T07:34:29.729Z,98592.77
2022-12-12T07:35:35.819Z,98592.77
2022-12-12T07:36:43.963Z,98590.83
2022-12-12T07:37:50.970Z,98590.83
2022-12-12T07:38:54.967Z,98596.95
2022-12-12T07:39:58.911Z,98605.45
2022-12-12T07:41:07.943Z,98605.45
2022-12-12T07:42:11.797Z,98618.00
2022-12-12T07:43:18.361Z,98621.20
2022-12-12T07:44:23.869Z,98623.02
2022-12-12T07:45:29.890Z,98628.03
2022-12-12T07:46:34.360Z,98625.95
2022-12-12T07:47:38.397Z,98630.14
2022-12-12T07:48:45.938Z,98631.56
2022-12-12T07:49:51.565Z,98636.02
2022-12-12T07:50:57.272Z,98626.28
2022-12-12T07:52:02.878Z,98626.28
2022-12-12T07:53:07.138Z,98627.67
2022-12-12T07:54:12.701Z,98627.67
2022-12-12T07:55:21.722Z,98633.80
2022-12-12T07:56:28.283Z,98637.98
2022-12-12T08:00:38.368Z,98637.15
2022-12-12T08:01:39.798Z,98629.09
2022-12-12T08:02:47.573Z,98627.16
2022-12-12T08:03:59.254Z,98627.16
2022-12-12T08:05:09.893Z,98628.82
2022-12-12T08:06:20.662Z,98628.42
2022-12-12T08:07:33.705Z,98630.20
2022-12-12T08:08:39.496Z,98619.38
2022-12-12T08:09:43.740Z,98624.41
2022-12-12T08:10:57.595Z,98618.56
2022-12-12T08:11:59.857Z,98622.04
2022-12-12T08:13:04.314Z,98622.04
2022-12-12T08:14:12.897Z,98622.20
2022-12-12T08:15:19.259Z,98615.80
2022-12-12T08:16:30.206Z,98614.69
2022-12-12T08:17:39.981Z,98614.69
2022-12-12T08:18:45.956Z,98617.22
2022-12-12T08:19:50.152Z,98617.22
2022-12-12T08:20:57.217Z,98601.48
2022-12-12T08:22:01.427Z,98602.16
2022-12-12T08:23:08.539Z,98595.62
2022-12-12T08:24:16.120Z,98599.81
2022-12-12T08:25:20.222Z,98601.35
2022-12-12T08:26:26.518Z,98597.44
2022-12-12T08:27:30.613Z,98602.61
2022-12-12T08:28:34.967Z,98521.86
2022-12-12T08:29:40.768Z,98590.34
2022-12-12T08:30:48.270Z,98592.70
2022-12-12T08:31:52.519Z,98592.42
2022-12-12T08:33:03.524Z,98592.42
2022-12-12T08:34:05.843Z,98599.48
2022-12-12T08:35:12.104Z,98594.12
2022-12-12T08:36:20.127Z,98599.41
2022-12-12T08:37:27.639Z,98596.06
2022-12-12T08:38:33.423Z,98598.00
2022-12-12T08:39:37.666Z,98598.00
2022-12-12T08:40:42.182Z,98609.72
2022-12-12T08:41:50.213Z,98607.06
2022-12-12T08:42:54.195Z,98599.98
2022-12-12T08:43:58.661Z,98602.47
2022-12-12T08:45:02.776Z,98610.58
2022-12-12T08:46:17.326Z,98621.42
2022-12-12T08:47:20.038Z,98622.00
2022-12-12T08:48:24.118Z,98616.83
2022-12-12T08:49:28.345Z,98610.83
2022-12-12T08:50:32.674Z,98609.99
2022-12-12T08:51:39.263Z,98609.99
2022-12-12T08:52:47.640Z,98598.28
2022-12-12T08:53:53.343Z,98595.52
2022-12-12T08:54:57.639Z,98594.40
2022-12-12T08:56:06.223Z,98597.19
2022-12-12T08:57:10.428Z,98605.56
2022-12-12T08:58:16.664Z,98605.56
2022-12-12T08:59:21.025Z,98597.45
2022-12-12T09:00:25.247Z,98599.83
2022-12-12T09:01:29.572Z,98609.15
2022-12-12T09:02:34.013Z,98609.15
2022-12-12T09:03:38.301Z,98607.08
2022-12-12T09:04:42.765Z,98603.59
2022-12-12T09:05:47.750Z,98598.84
2022-12-12T09:06:52.691Z,98592.70
2022-12-12T09:08:38.293Z,98596.47
2022-12-12T09:09:43.957Z,98602.05
2022-12-12T09:10:52.367Z,98602.05
2022-12-12T09:11:56.512Z,98612.23
2022-12-12T09:13:00.864Z,98607.50
2022-12-12T09:14:06.232Z,98607.50
2022-12-12T09:15:11.039Z,98600.80
2022-12-12T09:16:22.239Z,98601.52
2022-12-12T09:17:33.575Z,98604.45
2022-12-12T09:18:44.740Z,98601.22
2022-12-12T09:19:46.151Z,98603.58
2022-12-12T09:20:52.328Z,98598.98
2022-12-12T09:21:58.089Z,98622.27
2022-12-12T09:23:05.365Z,98612.09
2022-12-12T09:25:51.761Z,98590.05
2022-12-12T09:27:01.787Z,98587.12
2022-12-12T09:28:07.037Z,98585.17
2022-12-12T09:29:12.922Z,98583.06
2022-12-12T09:30:18.994Z,98590.73
2022-12-12T09:31:24.941Z,98588.20
2022-12-12T09:32:33.417Z,98600.78
2022-12-12T09:33:41.726Z,98600.78
2022-12-12T09:34:45.931Z,98608.33
2022-12-12T09:36:03.698Z,98612.22
2022-12-12T09:37:04.964Z,98613.75
2022-12-12T09:38:14.254Z,98618.09
2022-12-12T09:39:19.694Z,98618.09
2022-12-12T09:40:51.563Z,98613.34
2022-12-12T09:41:52.556Z,98618.92
2022-12-12T09:42:57.494Z,98618.92
2022-12-12T09:44:04.730Z,98628.15
2022-12-12T09:45:09.707Z,98630.50
2022-12-12T09:46:40.985Z,98636.79
2022-12-12T09:47:48.682Z,98637.36
2022-12-12T09:48:56.229Z,98644.73
2022-12-12T09:50:03.196Z,98648.77
2022-12-12T09:51:12.795Z,98655.73
2022-12-12T09:52:19.944Z,98646.25
2022-12-12T09:53:25.746Z,98656.13
2022-12-12T09:54:33.269Z,98658.50
2022-12-12T09:56:03.845Z,98656.57
2022-12-12T09:57:31.854Z,98661.00
2022-12-12T09:58:57.352Z,98657.92
2022-12-12T10:00:10.349Z,98657.64
2022-12-12T10:01:25.323Z,98657.64
2022-12-12T10:02:54.792Z,98659.73
2022-12-12T10:04:17.330Z,98668.75
2022-12-12T10:05:33.454Z,98669.85
2022-12-12T14:13:43.299Z,98887.40
2022-12-12T14:36:20.667Z,98881.66
2022-12-12T14:37:51.978Z,98890.91
2022-12-12T14:56:19.080Z,98900.61
2022-12-12T14:58:23.197Z,98906.73
2022-12-12T15:38:13.746Z,98931.23
2022-12-12T15:39:20.591Z,98923.08
2022-12-12T15:40:27.891Z,98928.25
2022-12-12T15:41:33.712Z,98927.19
2022-12-12T15:42:44.109Z,98934.97
2022-12-12T15:43:50.140Z,98933.16
2022-12-12T15:44:57.105Z,98931.49
2022-12-12T15:46:06.789Z,98940.25
2022-12-12T15:47:13.983Z,98940.25
2022-12-12T15:48:23.530Z,98940.25
2022-12-12T15:49:47.332Z,98942.89
2022-12-12T15:54:03.291Z,98935.95
2022-12-12T15:55:11.803Z,98957.31
2022-12-12T15:56:22.594Z,98965.83
2022-12-12T15:57:38.533Z,98968.37
2022-12-12T15:59:42.271Z,98968.37
2022-12-12T16:00:05.394Z,98971.01
2022-12-12T16:01:23.667Z,98963.19
2022-12-12T16:02:36.741Z,98972.92
2022-12-12T16:03:41.948Z,98972.32
2022-12-12T16:04:48.830Z,98976.63
2022-12-12T16:06:01.558Z,98977.70
2022-12-12T16:08:36.623Z,98982.25
2022-12-12T16:09:45.348Z,98983.22
2022-12-12T16:10:54.230Z,98983.22
2022-12-12T16:12:01.201Z,98982.48
2022-12-12T16:30:55.731Z,98988.05
2022-12-12T16:34:39.117Z,98989.38
2022-12-12T16:35:45.770Z,98989.38
2022-12-12T16:36:51.065Z,98982.20
2022-12-12T16:37:55.037Z,98977.75
2022-12-12T16:38:58.974Z,98971.04
2022-12-12T16:40:05.726Z,98980.53
2022-12-12T16:41:12.609Z,98975.25
2022-12-12T16:42:19.064Z,98976.92
2022-12-12T16:43:29.301Z,98969.97
2022-12-12T16:44:34.875Z,98976.08
2022-12-12T16:45:41.168Z,98971.87
2022-12-12T16:46:48.306Z,98971.97
2022-12-12T16:48:11.072Z,98971.97
2022-12-12T16:49:02.809Z,98976.19
2022-12-12T16:50:07.379Z,98982.20
2022-12-12T16:51:15.537Z,98982.20
2022-12-12T16:52:26.172Z,98982.20
2022-12-12T16:53:31.631Z,98987.47
2022-12-12T16:54:35.452Z,98987.47
2022-12-12T16:55:44.011Z,98986.51
2022-12-12T16:56:49.566Z,98986.51
2022-12-12T16:58:04.835Z,98984.50
2022-12-12T17:16:07.259Z,98995.36
